Pride Of Burgundy — MQSQ9 — position and weather

sailwx.info

Track history (hours):
 
Tides and Currents Weather Stations Pressure Air Temp Water Temp Dewpoint Dewpoint Depression Visibility Wind Speed Wind Dir Waves Ship Positions

Pride Of Burgundy

Operator: P & O Ferries

Last reported at 2019-Jan-23 18:29 UTC. Time now 2019-Jan-23 18:46 UTC.
Position N 51°07' E 001°20'.

Length 180 m; draft 6.2 m.

Type: Passenger vessel. MMSI: 232001470.

Date/timePositionNaut miles runAvg speedWind from/ knotsBaromVisibWave heightAir tempDewpointWater temp
2019-Jan-23 18:29N 51°07' E 001°20'0 0.0
2019-Jan-23 17:51N 51°07' E 001°20'2 6.7
2019-Jan-23 17:31N 51°07' E 001°24'918.8
2019-Jan-23 17:00N 51°02' E 001°36'918.2
2019-Jan-23 16:30N 50°58' E 001°50'1 2.5
2019-Jan-23 16:00N 50°58' E 001°51'0 0.0
2019-Jan-23 15:30N 50°58' E 001°51'612.4
2019-Jan-23 15:00N 50°58' E 001°42'1020.5
2019-Jan-23 14:31N 51°04' E 001°28'612.0
2019-Jan-23 14:00N 51°07' E 001°20'0 0.0
2019-Jan-23 13:27N 51°07' E 001°20'1 3.1
2019-Jan-23 13:01N 51°07' E 001°22'816.9
2019-Jan-23 12:30N 51°04' E 001°35'917.2
2019-Jan-23 12:00N 50°58' E 001°45'4 8.0
2019-Jan-23 11:30N 50°58' E 001°51'0 0.0
2019-Jan-23 11:00N 50°58' E 001°51'1 2.0
2019-Jan-23 10:30N 50°58' E 001°50'918.0
2019-Jan-23 10:00N 50°59' E 001°36'1019.4
2019-Jan-23 09:30N 51°05' E 001°23'3 5.4
2019-Jan-23 08:55N 51°07' E 001°20'0 0.0
2019-Jan-23 08:20N 51°07' E 001°20'3 9.5
2019-Jan-23 08:00N 51°07' E 001°25'1019.2
2019-Jan-23 07:30N 51°01' E 001°37'917.4
2019-Jan-23 07:00N 50°58' E 001°50'1 1.3
2019-Jan-23 06:30N 50°58' E 001°51'0 0.0
2019-Jan-23 06:00N 50°58' E 001°51'2 4.0
2019-Jan-23 05:31N 50°58' E 001°48'917.0
2019-Jan-23 05:00N 51°00' E 001°35'917.0
2019-Jan-23 04:30N 51°06' E 001°25'3 2.9
2019-Jan-23 03:20N 51°07' E 001°20'3 8.5
2019-Jan-23 03:00N 51°07' E 001°24'817.0
2019-Jan-23 02:30N 51°03' E 001°37'816.3
2019-Jan-23 02:00N 50°58' E 001°47'3 6.0
2019-Jan-23 01:30N 50°58' E 001°51'0 0.0
2019-Jan-23 01:00N 50°58' E 001°51'1 2.5
2019-Jan-23 00:30N 50°58' E 001°50'1121.2
2019-Jan-23 00:00N 51°00' E 001°33'1019.8
2019-Jan-22 23:30N 51°07' E 001°22'1 0.9
2019-Jan-22 22:22N 51°07' E 001°20'616.9
2019-Jan-22 22:00N 51°05' E 001°29'1020.4
2019-Jan-22 21:30N 50°59' E 001°42'611.6
2019-Jan-22 21:00N 50°58' E 001°51'0 0.0
2019-Jan-22 20:30N 50°58' E 001°51'2 4.0
2019-Jan-22 20:01N 50°58' E 001°48'917.0
2019-Jan-22 19:30N 51°00' E 001°35'1019.1
2019-Jan-22 19:01N 51°05' E 001°22'2 4.8
2019-Jan-22 18:30N 51°07' E 001°20'0 0.0
2019-Jan-22 17:58N 51°07' E 001°20'2 4.6
2019-Jan-22 17:30N 51°07' E 001°23'1019.8
2019-Jan-22 17:00N 51°01' E 001°36'918.6
2019-Jan-22 16:31N 50°58' E 001°50'1 1.5
2019-Jan-22 16:00N 50°58' E 001°51'0 0.0
2019-Jan-22 15:30N 50°58' E 001°51'611.7
2019-Jan-22 15:01N 50°58' E 001°42'1020.1
2019-Jan-22 14:30N 51°03' E 001°29'712.8
2019-Jan-22 14:00N 51°07' E 001°20'0 0.0
2019-Jan-22 13:29N 51°07' E 001°20'1 2.6
2019-Jan-22 13:00N 51°07' E 001°22'816.2
2019-Jan-22 12:30N 51°04' E 001°34'918.2
2019-Jan-22 12:00N 50°58' E 001°45'4 8.1
2019-Jan-22 11:30N 50°58' E 001°51'0 0.0
2019-Jan-22 11:00N 50°58' E 001°51'0 0.6
2019-Jan-22 10:31N 50°58' E 001°51'918.4
2019-Jan-22 10:00N 51°00' E 001°37'1019.7
2019-Jan-22 09:30N 51°05' E 001°23'3 6.1
2019-Jan-22 09:00N 51°07' E 001°20'0 0.0
2019-Jan-22 08:29N 51°07' E 001°20'4 7.8
2019-Jan-22 08:00N 51°06' E 001°26'918.9
2019-Jan-22 07:31N 51°02' E 001°39'816.8
2019-Jan-22 07:00N 50°58' E 001°51'0 0.7
2019-Jan-22 06:30N 50°58' E 001°51'0 0.0
2019-Jan-22 06:00N 50°58' E 001°51'1 2.6
2019-Jan-22 05:30N 50°58' E 001°49'917.9
2019-Jan-22 05:01N 50°59' E 001°35'918.5
2019-Jan-22 04:31N 51°05' E 001°24'4 6.6
2019-Jan-22 03:57N 51°07' E 001°20'4 3.8
2019-Jan-22 03:00N 51°06' E 001°25'918.7
2019-Jan-22 02:30N 51°01' E 001°38'816.7
2019-Jan-22 02:00N 50°58' E 001°50'1 1.3
2019-Jan-22 01:30N 50°58' E 001°51'0 0.0
2019-Jan-22 01:00N 50°58' E 001°51'4 7.2
2019-Jan-22 00:30N 50°58' E 001°46'1020.1
2019-Jan-22 00:00N 51°02' E 001°31'917.6
2019-Jan-21 23:30N 51°07' E 001°20'0 0.1
2019-Jan-21 23:00N 51°07' E 001°20'0 0.2
2019-Jan-21 22:31N 51°07' E 001°20'815.6
2019-Jan-21 22:00N 51°04' E 001°31'1020.4
2019-Jan-21 21:31N 50°58' E 001°45'4 8.5
2019-Jan-21 21:00N 50°58' E 001°51'0 0.0
2019-Jan-21 20:30N 50°58' E 001°51'3 6.0
2019-Jan-21 20:01N 50°58' E 001°47'917.4
2019-Jan-21 19:31N 51°01' E 001°33'1019.2
2019-Jan-21 19:01N 51°06' E 001°21'1 2.8
2019-Jan-21 18:30N 51°07' E 001°20'0 0.0
2019-Jan-21 18:00N 51°07' E 001°20'612.9
2019-Jan-21 17:30N 51°06' E 001°30'1020.2
2019-Jan-21 17:00N 50°59' E 001°42'612.0
2019-Jan-21 16:30N 50°58' E 001°51'0 0.0
2019-Jan-21 16:00N 50°58' E 001°51'0 0.0
2019-Jan-21 15:30N 50°58' E 001°51'714.9
2019-Jan-21 15:01N 50°59' E 001°40'1020.3
2019-Jan-21 14:31N 51°04' E 001°26'5 9.4
2019-Jan-21 13:59N 51°07' E 001°20'0 0.0
2019-Jan-21 13:30N 51°07' E 001°20'1 1.1
2019-Jan-21 13:01N 51°07' E 001°21'918.3
2019-Jan-21 12:30N 51°03' E 001°34'917.8
2019-Jan-21 12:01N 50°58' E 001°46'4 7.3
2019-Jan-21 11:30N 50°58' E 001°51'0 0.0
2019-Jan-21 11:00N 50°58' E 001°51'1 1.1
2019-Jan-21 10:30N 50°58' E 001°51'917.6
2019-Jan-21 10:00N 50°59' E 001°37'1019.9
2019-Jan-21 09:30N 51°06' E 001°25'4 6.3
2019-Jan-21 08:57N 51°07' E 001°20'0 0.0
2019-Jan-21 08:28N 51°07' E 001°20'1 3.1
2019-Jan-21 08:01N 51°07' E 001°22'918.6
2019-Jan-21 07:31N 51°02' E 001°35'919.0
2019-Jan-21 07:01N 50°58' E 001°49'2 3.5
2019-Jan-21 06:30N 50°58' E 001°51'0 0.0
2019-Jan-21 06:00N 50°58' E 001°51'1 1.5
2019-Jan-21 05:31N 50°58' E 001°50'815.5
2019-Jan-21 05:00N 50°58' E 001°38'917.6
2019-Jan-21 04:31N 51°03' E 001°26'611.0
2019-Jan-21 03:58N 51°07' E 001°20'0 0.0
2019-Jan-21 03:30N 51°07' E 001°20'3 5.0
2019-Jan-21 03:00N 51°07' E 001°24'918.2
2019-Jan-21 02:30N 51°01' E 001°35'917.4
2019-Jan-21 02:00N 50°58' E 001°48'2 3.8
2019-Jan-21 01:30N 50°58' E 001°51'0 0.0
2019-Jan-21 01:00N 50°58' E 001°51'0 0.3
2019-Jan-21 00:30N 50°58' E 001°51'917.1
2019-Jan-21 00:00N 50°59' E 001°38'918.2
2019-Jan-20 23:30N 51°04' E 001°26'5 9.2
2019-Jan-20 23:00N 51°07' E 001°20'0 0.0
2019-Jan-20 22:30N 51°07' E 001°20'3 6.6
2019-Jan-20 22:00N 51°07' E 001°25'1019.8
2019-Jan-20 21:30N 51°02' E 001°39'816.8
2019-Jan-20 21:00N 50°58' E 001°51'0 0.7
2019-Jan-20 20:30N 50°58' E 001°51'0 0.0
2019-Jan-20 20:00N 50°58' E 001°51'714.2
2019-Jan-20 19:30N 50°59' E 001°40'1019.2
2019-Jan-20 19:01N 51°04' E 001°27'611.4
2019-Jan-20 18:30N 51°07' E 001°20'0 0.0
2019-Jan-20 18:01N 51°07' E 001°20'2 4.1
2019-Jan-20 17:30N 51°07' E 001°23'1019.3
2019-Jan-20 17:00N 51°02' E 001°36'918.7
2019-Jan-20 16:31N 50°58' E 001°50'1 1.9
2019-Jan-20 16:00N 50°58' E 001°51'0 0.0
2019-Jan-20 15:30N 50°58' E 001°51'4 7.1
2019-Jan-20 15:00N 50°58' E 001°46'1019.4
2019-Jan-20 14:30N 51°01' E 001°32'918.8
2019-Jan-20 14:01N 51°07' E 001°20'0 0.2
2019-Jan-20 13:30N 51°07' E 001°20'1 1.1
2019-Jan-20 13:00N 51°07' E 001°21'918.2
2019-Jan-20 12:30N 51°04' E 001°34'918.4
2019-Jan-20 12:01N 50°58' E 001°46'4 7.2
2019-Jan-20 11:30N 50°58' E 001°51'0 0.0
2019-Jan-20 11:00N 50°58' E 001°51'1 1.4
2019-Jan-20 10:30N 50°58' E 001°50'918.8
2019-Jan-20 10:00N 50°60' E 001°36'917.2
2019-Jan-20 09:30N 51°05' E 001°25'4 7.4
2019-Jan-20 09:00N 51°07' E 001°20'0 0.0
2019-Jan-20 08:30N 51°07' E 001°20'4 8.3
2019-Jan-20 08:00N 51°06' E 001°26'918.7
2019-Jan-20 07:30N 51°01' E 001°38'816.4
2019-Jan-20 07:00N 50°58' E 001°51'0 0.4
2019-Jan-20 06:31N 50°58' E 001°51'0 0.0
2019-Jan-20 06:00N 50°58' E 001°51'0 0.0
2019-Jan-20 05:31N 50°58' E 001°51'0 0.0
2019-Jan-20 05:00N 50°58' E 001°51'0 0.0
2019-Jan-20 04:30N 50°58' E 001°51'0 0.0
2019-Jan-20 04:00N 50°58' E 001°51'0 0.0
2019-Jan-20 03:30N 50°58' E 001°51'0 0.0
2019-Jan-20 03:00N 50°58' E 001°51'0 0.0
2019-Jan-20 02:31N 50°58' E 001°51'0 0.0
2019-Jan-20 02:00N 50°58' E 001°51'0 0.0
2019-Jan-20 01:30N 50°58' E 001°51'0 0.0
2019-Jan-20 01:00N 50°58' E 001°51'0 0.3
2019-Jan-20 00:30N 50°58' E 001°51'816.7
2019-Jan-20 00:01N 50°60' E 001°38'918.2
2019-Jan-19 23:31N 51°06' E 001°27'5 9.1
2019-Jan-19 23:00N 51°07' E 001°20'0 0.0
2019-Jan-19 22:28N 51°07' E 001°20'3 5.8
2019-Jan-19 22:00N 51°07' E 001°24'1019.8
2019-Jan-19 21:30N 51°03' E 001°39'816.9
2019-Jan-19 21:01N 50°58' E 001°50'1 1.4
2019-Jan-19 20:30N 50°58' E 001°51'1 1.7
2019-Jan-19 20:01N 50°58' E 001°50'918.9
2019-Jan-19 19:31N 51°00' E 001°35'1019.2
2019-Jan-19 19:01N 51°06' E 001°22'2 4.4
2019-Jan-19 18:30N 51°07' E 001°20'0 0.0
2019-Jan-19 18:00N 51°07' E 001°20'4 8.0
2019-Jan-19 17:31N 51°07' E 001°26'919.0
2019-Jan-19 17:01N 51°00' E 001°38'917.4
2019-Jan-19 16:30N 50°58' E 001°51'0 0.3
2019-Jan-19 16:00N 50°58' E 001°51'0 0.1
2019-Jan-19 15:30N 50°58' E 001°51'714.0
2019-Jan-19 15:00N 50°58' E 001°40'917.2
2019-Jan-19 14:30N 51°03' E 001°29'714.6
2019-Jan-19 14:00N 51°07' E 001°20'0 0.0
2019-Jan-19 13:29N 51°07' E 001°20'0 0.5
2019-Jan-19 13:00N 51°07' E 001°20'918.3
2019-Jan-19 12:30N 51°03' E 001°33'1019.1
2019-Jan-19 12:00N 50°58' E 001°46'3 6.5
2019-Jan-19 11:30N 50°58' E 001°51'0 0.0
2019-Jan-19 11:00N 50°58' E 001°51'1 2.3
2019-Jan-19 10:30N 50°58' E 001°50'918.5
2019-Jan-19 10:00N 51°01' E 001°35'918.6
2019-Jan-19 09:30N 51°06' E 001°24'3 5.0
2019-Jan-19 09:00N 51°07' E 001°20'0 0.0
2019-Jan-19 08:29N 51°07' E 001°20'3 6.8
2019-Jan-19 08:00N 51°07' E 001°25'1019.1
2019-Jan-19 07:30N 51°01' E 001°38'917.4
2019-Jan-19 07:01N 50°58' E 001°51'1 1.2
2019-Jan-19 06:30N 50°58' E 001°51'0 0.0
2019-Jan-19 06:01N 50°58' E 001°51'1 1.7
2019-Jan-19 05:31N 50°58' E 001°50'917.1
2019-Jan-19 05:00N 50°59' E 001°37'918.3
2019-Jan-19 04:31N 51°05' E 001°26'4 8.1
2019-Jan-19 04:00N 51°07' E 001°20'0 0.0
2019-Jan-19 03:29N 51°07' E 001°20'1 1.9
2019-Jan-19 03:01N 51°07' E 001°21'918.3
2019-Jan-19 02:30N 51°03' E 001°34'918.3
2019-Jan-19 02:00N 50°58' E 001°47'3 6.0
2019-Jan-19 01:30N 50°58' E 001°51'0 0.0
2019-Jan-19 01:00N 50°58' E 001°51'0 0.3
2019-Jan-19 00:30N 50°58' E 001°51'816.0
2019-Jan-19 00:00N 50°59' E 001°39'1019.1
2019-Jan-18 23:30N 51°05' E 001°26'5 9.1
2019-Jan-18 23:00N 51°07' E 001°20'0 0.0
2019-Jan-18 22:28N 51°07' E 001°20'2 5.2
2019-Jan-18 22:01N 51°07' E 001°24'1019.9
2019-Jan-18 21:31N 51°02' E 001°37'917.5
2019-Jan-18 21:01N 50°58' E 001°50'1 1.8
2019-Jan-18 20:30N 50°58' E 001°51'0 0.0
2019-Jan-18 20:00N 50°58' E 001°51'815.3
2019-Jan-18 19:31N 50°59' E 001°39'1019.1
2019-Jan-18 19:00N 51°05' E 001°27'510.4
2019-Jan-18 18:31N 51°07' E 001°20'0 0.0
2019-Jan-18 18:00N 51°07' E 001°20'1 2.5
2019-Jan-18 17:30N 51°07' E 001°22'1020.7
2019-Jan-18 17:01N 51°02' E 001°36'918.9
2019-Jan-18 16:30N 50°58' E 001°50'1 1.7
2019-Jan-18 16:00N 50°58' E 001°51'0 0.1
2019-Jan-18 15:30N 50°58' E 001°51'714.3
2019-Jan-18 15:01N 50°59' E 001°40'1019.3
2019-Jan-18 14:31N 51°04' E 001°27'610.6
2019-Jan-18 13:59N 51°07' E 001°20'0 0.0
2019-Jan-18 13:30N 51°07' E 001°20'1 1.0
2019-Jan-18 13:00N 51°07' E 001°21'918.2
2019-Jan-18 12:31N 51°04' E 001°34'1019.2
2019-Jan-18 12:01N 50°58' E 001°47'3 6.1
2019-Jan-18 11:30N 50°58' E 001°51'0 0.0
2019-Jan-18 11:00N 50°58' E 001°51'1 2.6
2019-Jan-18 10:31N 50°58' E 001°49'917.3
2019-Jan-18 10:01N 51°02' E 001°37'1019.4
2019-Jan-18 09:30N 51°06' E 001°23'2 4.7
2019-Jan-18 09:00N 51°07' E 001°20'0 0.0
2019-Jan-18 08:29N 51°07' E 001°20'0 0.5
2019-Jan-18 08:00N 51°07' E 001°20'917.7
2019-Jan-18 07:30N 51°07' E 001°34'918.9
2019-Jan-18 07:00N 50°59' E 001°43'510.9
2019-Jan-18 06:30N 50°58' E 001°51'0 0.0
2019-Jan-18 06:00N 50°58' E 001°51'2 4.5
2019-Jan-18 05:30N 50°58' E 001°48'917.8
2019-Jan-18 05:00N 51°01' E 001°34'1019.7
2019-Jan-18 04:31N 51°07' E 001°22'1 2.8
2019-Jan-18 04:00N 51°07' E 001°20'0 0.3
2019-Jan-18 03:30N 51°07' E 001°20'918.9
2019-Jan-18 03:00N 51°03' E 001°34'1019.5
2019-Jan-18 02:30N 50°58' E 001°47'3 5.7
2019-Jan-18 02:00N 50°58' E 001°51'0 0.0
2019-Jan-18 01:30N 50°58' E 001°51'0 0.7
2019-Jan-18 01:01N 50°58' E 001°51'816.7
2019-Jan-18 00:31N 50°59' E 001°38'1020.1
2019-Jan-18 00:01N 51°05' E 001°24'4 7.5
2019-Jan-17 23:30N 51°07' E 001°20'0 0.0
2019-Jan-17 23:00N 51°07' E 001°20'1 1.0
2019-Jan-17 22:30N 51°07' E 001°21'917.9
2019-Jan-17 22:01N 51°03' E 001°33'918.3
2019-Jan-17 21:31N 50°58' E 001°46'4 7.4
2019-Jan-17 21:00N 50°58' E 001°51'0 0.0
2019-Jan-17 20:30N 50°58' E 001°51'1 2.8
2019-Jan-17 20:01N 50°58' E 001°49'918.3
2019-Jan-17 19:31N 50°60' E 001°35'1020.0
2019-Jan-17 19:00N 51°06' E 001°23'2 4.0
2019-Jan-17 18:30N 51°07' E 001°20'0 0.0
2019-Jan-17 18:00N 51°07' E 001°20'4 8.2
2019-Jan-17 17:30N 51°06' E 001°26'1019.1
2019-Jan-17 17:00N 51°00' E 001°39'816.1
2019-Jan-17 16:30N 50°58' E 001°51'0 0.8
2019-Jan-17 16:00N 50°58' E 001°51'0 0.0
2019-Jan-17 15:30N 50°58' E 001°51'611.3
2019-Jan-17 15:00N 50°58' E 001°43'918.8
2019-Jan-17 14:30N 51°02' E 001°29'815.6
2019-Jan-17 14:00N 51°07' E 001°20'0 0.0
2019-Jan-17 13:29N 51°07' E 001°20'1 2.1
2019-Jan-17 13:00N 51°07' E 001°22'917.1
2019-Jan-17 12:30N 51°03' E 001°33'918.8
2019-Jan-17 12:00N 50°58' E 001°46'3 6.7
2019-Jan-17 11:30N 50°58' E 001°51'0 0.0
2019-Jan-17 11:01N 50°58' E 001°51'611.9
2019-Jan-17 10:30N 50°58' E 001°42'1020.0
2019-Jan-17 10:00N 51°03' E 001°28'713.6
2019-Jan-17 09:30N 51°07' E 001°20'0 0.0
2019-Jan-17 09:00N 51°07' E 001°20'2 3.6
2019-Jan-17 08:30N 51°07' E 001°23'918.4
2019-Jan-17 08:00N 51°03' E 001°36'917.4
2019-Jan-17 07:31N 50°58' E 001°47'3 5.1
2019-Jan-17 07:00N 50°58' E 001°51'0 0.0
2019-Jan-17 06:30N 50°58' E 001°51'612.3
2019-Jan-17 06:00N 50°58' E 001°42'1020.4
2019-Jan-17 05:30N 51°04' E 001°28'612.2
2019-Jan-17 05:00N 51°07' E 001°20'0 0.0
2019-Jan-17 04:29N 51°07' E 001°20'4 9.0
2019-Jan-17 04:01N 51°06' E 001°27'1020.5
2019-Jan-17 03:30N 51°00' E 001°40'7 7.5
2019-Jan-17 02:30N 50°58' E 001°51'4 8.9
2019-Jan-17 02:00N 50°58' E 001°44'918.9
2019-Jan-17 01:30N 51°03' E 001°31'917.3
2019-Jan-17 01:01N 51°07' E 001°20'0 0.0
2019-Jan-17 00:18N 51°07' E 001°20'0 0.2
2019-Jan-17 00:00N 51°07' E 001°20'815.8
2019-Jan-16 23:31N 51°07' E 001°33'917.4
2019-Jan-16 23:01N 51°00' E 001°40'714.7
2019-Jan-16 22:31N 50°58' E 001°51'0 0.1
2019-Jan-16 22:00N 50°58' E 001°51'0 0.0
2019-Jan-16 21:30N 50°58' E 001°51'612.1
2019-Jan-16 21:00N 50°58' E 001°42'1019.0
2019-Jan-16 20:30N 51°04' E 001°29'713.8
2019-Jan-16 20:00N 51°07' E 001°20'0 0.0
2019-Jan-16 19:30N 51°07' E 001°20'0 0.0
2019-Jan-16 19:00N 51°07' E 001°20'3 5.0
2019-Jan-16 18:30N 51°07' E 001°24'917.7
2019-Jan-16 18:00N 51°03' E 001°37'817.0
2019-Jan-16 17:30N 50°58' E 001°48'2 4.5
2019-Jan-16 17:00N 50°58' E 001°51'0 0.0
2019-Jan-16 16:30N 50°58' E 001°51'0 0.0
2019-Jan-16 16:00N 50°58' E 001°51'4 8.4
2019-Jan-16 15:31N 50°58' E 001°45'1019.1
2019-Jan-16 15:00N 51°01' E 001°30'918.2
2019-Jan-16 14:30N 51°07' E 001°21'0 0.6
2019-Jan-16 14:00N 51°07' E 001°20'0 0.0
2019-Jan-16 13:30N 51°07' E 001°20'3 5.9
2019-Jan-16 13:00N 51°07' E 001°24'918.6
2019-Jan-16 12:30N 51°02' E 001°37'918.0
2019-Jan-16 12:00N 50°58' E 001°50'1 1.3
2019-Jan-16 11:30N 50°58' E 001°51'0 0.3
2019-Jan-16 11:00N 50°58' E 001°51'510.9
2019-Jan-16 10:30N 50°58' E 001°42'1019.6
2019-Jan-16 10:00N 51°03' E 001°29'713.8
2019-Jan-16 09:30N 51°07' E 001°20'0 0.0
2019-Jan-16 08:56N 51°07' E 001°20'0 0.5
2019-Jan-16 08:30N 51°07' E 001°20'4 9.0
2019-Jan-16 08:00N 51°07' E 001°27'713.4
2019-Jan-16 07:31N 51°02' E 001°35'917.1
2019-Jan-16 07:01N 50°58' E 001°46'3 6.1
2019-Jan-16 06:30N 50°58' E 001°51'0 0.0
2019-Jan-16 06:01N 50°58' E 001°51'1 2.4
2019-Jan-16 05:30N 50°58' E 001°49'1019.4
2019-Jan-16 05:01N 51°01' E 001°35'1019.6
2019-Jan-16 04:30N 51°07' E 001°22'1 2.6
2019-Jan-16 04:00N 51°07' E 001°20'0 0.0
2019-Jan-16 03:30N 51°07' E 001°20'4 8.4
2019-Jan-16 03:00N 51°06' E 001°26'611.6
2019-Jan-16 02:31N 51°03' E 001°34'917.5
2019-Jan-16 02:00N 50°58' E 001°46'4 7.2
2019-Jan-16 01:30N 50°58' E 001°51'0 0.0
2019-Jan-16 01:00N 50°58' E 001°51'1 1.4
2019-Jan-16 00:31N 50°58' E 001°50'917.3
2019-Jan-16 00:01N 50°59' E 001°37'1019.1
2019-Jan-15 23:31N 51°06' E 001°26'4 7.9
2019-Jan-15 23:00N 51°07' E 001°20'0 0.0
2019-Jan-15 22:30N 51°07' E 001°20'2 4.8
2019-Jan-15 22:00N 51°07' E 001°24'919.0
2019-Jan-15 21:30N 51°03' E 001°37'917.9
2019-Jan-15 21:00N 50°58' E 001°50'1 2.4
2019-Jan-15 20:30N 50°58' E 001°51'1 1.0
2019-Jan-15 20:00N 50°58' E 001°51'918.3
2019-Jan-15 19:31N 51°00' E 001°37'1019.9
2019-Jan-15 19:01N 51°06' E 001°24'3 5.0
2019-Jan-15 18:29N 51°07' E 001°20'0 0.0
2019-Jan-15 18:00N 51°07' E 001°20'612.2
2019-Jan-15 17:30N 51°05' E 001°29'918.6
2019-Jan-15 17:00N 50°60' E 001°41'713.4
2019-Jan-15 16:30N 50°58' E 001°51'0 0.0
2019-Jan-15 16:00N 50°58' E 001°51'0 0.0
2019-Jan-15 15:30N 50°58' E 001°51'815.4
2019-Jan-15 15:00N 50°59' E 001°39'1020.0
2019-Jan-15 14:30N 51°04' E 001°26'5 9.4
2019-Jan-15 14:00N 51°07' E 001°20'0 0.0
2019-Jan-15 13:30N 51°07' E 001°20'0 1.0
2019-Jan-15 13:00N 51°07' E 001°21'918.4
2019-Jan-15 12:30N 51°03' E 001°33'918.9
2019-Jan-15 12:00N 50°58' E 001°47'3 6.1
2019-Jan-15 11:30N 50°58' E 001°51'0 0.0
2019-Jan-15 11:00N 50°58' E 001°51'2 3.6
2019-Jan-15 10:30N 50°58' E 001°49'917.6
2019-Jan-15 10:01N 51°00' E 001°35'1020.1
2019-Jan-15 09:30N 51°07' E 001°22'2 3.1
2019-Jan-15 08:57N 51°07' E 001°20'0 0.0
2019-Jan-15 08:30N 51°07' E 001°20'510.0
2019-Jan-15 08:00N 51°06' E 001°27'816.3
2019-Jan-15 07:30N 51°01' E 001°38'815.8
2019-Jan-15 07:00N 50°58' E 001°50'1 2.2
2019-Jan-15 06:30N 50°58' E 001°51'0 0.0
2019-Jan-15 06:00N 50°58' E 001°51'2 3.8
2019-Jan-15 05:31N 50°58' E 001°48'917.7
2019-Jan-15 05:01N 50°60' E 001°35'815.2
2019-Jan-15 04:31N 51°05' E 001°26'4 8.4
2019-Jan-15 03:59N 51°07' E 001°20'0 0.0
2019-Jan-15 03:29N 51°07' E 001°20'3 6.0
2019-Jan-15 03:00N 51°07' E 001°24'816.9
2019-Jan-15 02:30N 51°02' E 001°36'816.4
2019-Jan-15 02:01N 50°58' E 001°47'3 5.4
2019-Jan-15 01:30N 50°58' E 001°51'0 0.0
2019-Jan-15 01:01N 50°58' E 001°51'2 3.4
2019-Jan-15 00:31N 50°58' E 001°49'815.4
2019-Jan-15 00:00N 51°00' E 001°37'1019.6
2019-Jan-14 23:30N 51°06' E 001°24'3 5.4
2019-Jan-14 22:57N 51°07' E 001°20'0 0.0
2019-Jan-14 22:29N 51°07' E 001°20'3 6.1
2019-Jan-14 22:01N 51°07' E 001°24'918.7
2019-Jan-14 21:31N 51°02' E 001°37'917.2
2019-Jan-14 21:01N 50°58' E 001°50'1 2.3
2019-Jan-14 20:30N 50°58' E 001°51'0 0.0
2019-Jan-14 20:00N 50°58' E 001°51'714.2
2019-Jan-14 19:30N 50°59' E 001°40'1020.3
2019-Jan-14 19:00N 51°05' E 001°27'510.3
2019-Jan-14 18:30N 51°07' E 001°20'0 0.0
2019-Jan-14 18:00N 51°07' E 001°20'612.9
2019-Jan-14 17:30N 51°07' E 001°30'1019.3
2019-Jan-14 17:01N 51°00' E 001°42'713.0
2019-Jan-14 16:30N 50°58' E 001°51'0 0.3
2019-Jan-14 16:00N 50°58' E 001°51'0 0.2
2019-Jan-14 15:30N 50°58' E 001°51'917.4
2019-Jan-14 15:00N 50°58' E 001°37'1019.6
2019-Jan-14 14:30N 51°04' E 001°25'5 9.5
2019-Jan-14 14:01N 51°07' E 001°20'0 0.0
2019-Jan-14 13:31N 51°07' E 001°20'4 7.1
2019-Jan-14 13:00N 51°06' E 001°25'1019.7
2019-Jan-14 12:30N 51°01' E 001°38'917.0
2019-Jan-14 12:01N 50°58' E 001°51'0 0.4
2019-Jan-14 11:30N 50°58' E 001°51'0 0.0
2019-Jan-14 11:01N 50°58' E 001°51'1 2.1
2019-Jan-14 10:30N 50°58' E 001°50'917.0
2019-Jan-14 10:00N 50°59' E 001°36'1019.2
2019-Jan-14 09:30N 51°05' E 001°25'4 6.5
2019-Jan-14 08:57N 51°07' E 001°20'0 0.0
2019-Jan-14 08:30N 51°07' E 001°20'3 5.4
2019-Jan-14 08:01N 51°07' E 001°24'918.3
2019-Jan-14 07:31N 51°03' E 001°37'816.8
2019-Jan-14 07:00N 50°58' E 001°48'2 3.7
2019-Jan-14 06:31N 50°58' E 001°51'0 0.0
2019-Jan-14 06:00N 50°58' E 001°51'1 1.3
2019-Jan-14 05:31N 50°58' E 001°50'816.0
2019-Jan-14 05:00N 50°58' E 001°38'917.9
2019-Jan-14 04:30N 51°04' E 001°27'510.8
2019-Jan-14 04:00N 51°07' E 001°20'0 0.0
2019-Jan-14 03:30N 51°07' E 001°20'4 7.4
2019-Jan-14 03:00N 51°06' E 001°26'917.3
2019-Jan-14 02:30N 51°02' E 001°38'714.2
2019-Jan-14 02:00N 50°58' E 001°47'3 5.6
2019-Jan-14 01:30N 50°58' E 001°51'0 0.0
2019-Jan-14 01:00N 50°58' E 001°51'1 2.3
2019-Jan-14 00:30N 50°58' E 001°50'917.2
2019-Jan-14 00:00N 50°60' E 001°36'1020.0
2019-Jan-13 23:30N 51°06' E 001°23'3 5.5
2019-Jan-13 23:00N 51°07' E 001°20'0 0.0
2019-Jan-13 22:30N 51°07' E 001°20'0 0.0
2019-Jan-13 22:00N 51°07' E 001°20'0 0.0
2019-Jan-13 21:30N 51°07' E 001°20'0 0.0
2019-Jan-13 21:00N 51°07' E 001°20'0 0.0
2019-Jan-13 20:30N 51°07' E 001°20'2 4.7
2019-Jan-13 20:00N 51°07' E 001°24'918.8
2019-Jan-13 19:30N 51°03' E 001°37'917.3
2019-Jan-13 19:00N 50°58' E 001°49'2 3.3
2019-Jan-13 18:30N 50°58' E 001°51'  
Track history (hours):
 
Tides and Currents Weather Stations Pressure Air Temp Water Temp Dewpoint Dewpoint Depression Visibility Wind Speed Wind Dir Waves Ship Positions

Pride Of Burgundy

Operator: P & O Ferries

Last reported at 2019-Jan-23 18:29 UTC. Time now 2019-Jan-23 18:46 UTC.
Position N 51°07' E 001°20'.

Length 180 m; draft 6.2 m.

Type: Passenger vessel. MMSI: 232001470.

Date/timePositionNaut miles runAvg speedWind from/ knotsBaromVisibWave heightAir tempDewpointWater temp
2019-Jan-23 18:29N 51°07' E 001°20'0 0.0
2019-Jan-23 17:51N 51°07' E 001°20'2 6.7
2019-Jan-23 17:31N 51°07' E 001°24'918.8
2019-Jan-23 17:00N 51°02' E 001°36'918.2
2019-Jan-23 16:30N 50°58' E 001°50'1 2.5
2019-Jan-23 16:00N 50°58' E 001°51'0 0.0
2019-Jan-23 15:30N 50°58' E 001°51'612.4
2019-Jan-23 15:00N 50°58' E 001°42'1020.5
2019-Jan-23 14:31N 51°04' E 001°28'612.0
2019-Jan-23 14:00N 51°07' E 001°20'0 0.0
2019-Jan-23 13:27N 51°07' E 001°20'1 3.1
2019-Jan-23 13:01N 51°07' E 001°22'816.9
2019-Jan-23 12:30N 51°04' E 001°35'917.2
2019-Jan-23 12:00N 50°58' E 001°45'4 8.0
2019-Jan-23 11:30N 50°58' E 001°51'0 0.0
2019-Jan-23 11:00N 50°58' E 001°51'1 2.0
2019-Jan-23 10:30N 50°58' E 001°50'918.0
2019-Jan-23 10:00N 50°59' E 001°36'1019.4
2019-Jan-23 09:30N 51°05' E 001°23'3 5.4
2019-Jan-23 08:55N 51°07' E 001°20'0 0.0
2019-Jan-23 08:20N 51°07' E 001°20'3 9.5
2019-Jan-23 08:00N 51°07' E 001°25'1019.2
2019-Jan-23 07:30N 51°01' E 001°37'917.4
2019-Jan-23 07:00N 50°58' E 001°50'1 1.3
2019-Jan-23 06:30N 50°58' E 001°51'0 0.0
2019-Jan-23 06:00N 50°58' E 001°51'2 4.0
2019-Jan-23 05:31N 50°58' E 001°48'917.0
2019-Jan-23 05:00N 51°00' E 001°35'917.0
2019-Jan-23 04:30N 51°06' E 001°25'3 2.9
2019-Jan-23 03:20N 51°07' E 001°20'3 8.5
2019-Jan-23 03:00N 51°07' E 001°24'817.0
2019-Jan-23 02:30N 51°03' E 001°37'816.3
2019-Jan-23 02:00N 50°58' E 001°47'3 6.0
2019-Jan-23 01:30N 50°58' E 001°51'0 0.0
2019-Jan-23 01:00N 50°58' E 001°51'1 2.5
2019-Jan-23 00:30N 50°58' E 001°50'1121.2
2019-Jan-23 00:00N 51°00' E 001°33'1019.8
2019-Jan-22 23:30N 51°07' E 001°22'1 0.9
2019-Jan-22 22:22N 51°07' E 001°20'616.9
2019-Jan-22 22:00N 51°05' E 001°29'1020.4
2019-Jan-22 21:30N 50°59' E 001°42'611.6
2019-Jan-22 21:00N 50°58' E 001°51'0 0.0
2019-Jan-22 20:30N 50°58' E 001°51'2 4.0
2019-Jan-22 20:01N 50°58' E 001°48'917.0
2019-Jan-22 19:30N 51°00' E 001°35'1019.1
2019-Jan-22 19:01N 51°05' E 001°22'2 4.8
2019-Jan-22 18:30N 51°07' E 001°20'0 0.0
2019-Jan-22 17:58N 51°07' E 001°20'2 4.6
2019-Jan-22 17:30N 51°07' E 001°23'1019.8
2019-Jan-22 17:00N 51°01' E 001°36'918.6
2019-Jan-22 16:31N 50°58' E 001°50'1 1.5
2019-Jan-22 16:00N 50°58' E 001°51'0 0.0
2019-Jan-22 15:30N 50°58' E 001°51'611.7
2019-Jan-22 15:01N 50°58' E 001°42'1020.1
2019-Jan-22 14:30N 51°03' E 001°29'712.8
2019-Jan-22 14:00N 51°07' E 001°20'0 0.0
2019-Jan-22 13:29N 51°07' E 001°20'1 2.6
2019-Jan-22 13:00N 51°07' E 001°22'816.2
2019-Jan-22 12:30N 51°04' E 001°34'918.2
2019-Jan-22 12:00N 50°58' E 001°45'4 8.1
2019-Jan-22 11:30N 50°58' E 001°51'0 0.0
2019-Jan-22 11:00N 50°58' E 001°51'0 0.6
2019-Jan-22 10:31N 50°58' E 001°51'918.4
2019-Jan-22 10:00N 51°00' E 001°37'1019.7
2019-Jan-22 09:30N 51°05' E 001°23'3 6.1
2019-Jan-22 09:00N 51°07' E 001°20'0 0.0
2019-Jan-22 08:29N 51°07' E 001°20'4 7.8
2019-Jan-22 08:00N 51°06' E 001°26'918.9
2019-Jan-22 07:31N 51°02' E 001°39'816.8
2019-Jan-22 07:00N 50°58' E 001°51'0 0.7
2019-Jan-22 06:30N 50°58' E 001°51'0 0.0
2019-Jan-22 06:00N 50°58' E 001°51'1 2.6
2019-Jan-22 05:30N 50°58' E 001°49'917.9
2019-Jan-22 05:01N 50°59' E 001°35'918.5
2019-Jan-22 04:31N 51°05' E 001°24'4 6.6
2019-Jan-22 03:57N 51°07' E 001°20'4 3.8
2019-Jan-22 03:00N 51°06' E 001°25'918.7
2019-Jan-22 02:30N 51°01' E 001°38'816.7
2019-Jan-22 02:00N 50°58' E 001°50'1 1.3
2019-Jan-22 01:30N 50°58' E 001°51'0 0.0
2019-Jan-22 01:00N 50°58' E 001°51'4 7.2
2019-Jan-22 00:30N 50°58' E 001°46'1020.1
2019-Jan-22 00:00N 51°02' E 001°31'917.6
2019-Jan-21 23:30N 51°07' E 001°20'0 0.1
2019-Jan-21 23:00N 51°07' E 001°20'0 0.2
2019-Jan-21 22:31N 51°07' E 001°20'815.6
2019-Jan-21 22:00N 51°04' E 001°31'1020.4
2019-Jan-21 21:31N 50°58' E 001°45'4 8.5
2019-Jan-21 21:00N 50°58' E 001°51'0 0.0
2019-Jan-21 20:30N 50°58' E 001°51'3 6.0
2019-Jan-21 20:01N 50°58' E 001°47'917.4
2019-Jan-21 19:31N 51°01' E 001°33'1019.2
2019-Jan-21 19:01N 51°06' E 001°21'1 2.8
2019-Jan-21 18:30N 51°07' E 001°20'0 0.0
2019-Jan-21 18:00N 51°07' E 001°20'612.9
2019-Jan-21 17:30N 51°06' E 001°30'1020.2
2019-Jan-21 17:00N 50°59' E 001°42'612.0
2019-Jan-21 16:30N 50°58' E 001°51'0 0.0
2019-Jan-21 16:00N 50°58' E 001°51'0 0.0
2019-Jan-21 15:30N 50°58' E 001°51'714.9
2019-Jan-21 15:01N 50°59' E 001°40'1020.3
2019-Jan-21 14:31N 51°04' E 001°26'5 9.4
2019-Jan-21 13:59N 51°07' E 001°20'0 0.0
2019-Jan-21 13:30N 51°07' E 001°20'1 1.1
2019-Jan-21 13:01N 51°07' E 001°21'918.3
2019-Jan-21 12:30N 51°03' E 001°34'917.8
2019-Jan-21 12:01N 50°58' E 001°46'4 7.3
2019-Jan-21 11:30N 50°58' E 001°51'0 0.0
2019-Jan-21 11:00N 50°58' E 001°51'1 1.1
2019-Jan-21 10:30N 50°58' E 001°51'917.6
2019-Jan-21 10:00N 50°59' E 001°37'1019.9
2019-Jan-21 09:30N 51°06' E 001°25'4 6.3
2019-Jan-21 08:57N 51°07' E 001°20'0 0.0
2019-Jan-21 08:28N 51°07' E 001°20'1 3.1
2019-Jan-21 08:01N 51°07' E 001°22'918.6
2019-Jan-21 07:31N 51°02' E 001°35'919.0
2019-Jan-21 07:01N 50°58' E 001°49'2 3.5
2019-Jan-21 06:30N 50°58' E 001°51'0 0.0
2019-Jan-21 06:00N 50°58' E 001°51'1 1.5
2019-Jan-21 05:31N 50°58' E 001°50'815.5
2019-Jan-21 05:00N 50°58' E 001°38'917.6
2019-Jan-21 04:31N 51°03' E 001°26'611.0
2019-Jan-21 03:58N 51°07' E 001°20'0 0.0
2019-Jan-21 03:30N 51°07' E 001°20'3 5.0
2019-Jan-21 03:00N 51°07' E 001°24'918.2
2019-Jan-21 02:30N 51°01' E 001°35'917.4
2019-Jan-21 02:00N 50°58' E 001°48'2 3.8
2019-Jan-21 01:30N 50°58' E 001°51'0 0.0
2019-Jan-21 01:00N 50°58' E 001°51'0 0.3
2019-Jan-21 00:30N 50°58' E 001°51'917.1
2019-Jan-21 00:00N 50°59' E 001°38'918.2
2019-Jan-20 23:30N 51°04' E 001°26'5 9.2
2019-Jan-20 23:00N 51°07' E 001°20'0 0.0
2019-Jan-20 22:30N 51°07' E 001°20'3 6.6
2019-Jan-20 22:00N 51°07' E 001°25'1019.8
2019-Jan-20 21:30N 51°02' E 001°39'816.8
2019-Jan-20 21:00N 50°58' E 001°51'0 0.7
2019-Jan-20 20:30N 50°58' E 001°51'0 0.0
2019-Jan-20 20:00N 50°58' E 001°51'714.2
2019-Jan-20 19:30N 50°59' E 001°40'1019.2
2019-Jan-20 19:01N 51°04' E 001°27'611.4
2019-Jan-20 18:30N 51°07' E 001°20'0 0.0
2019-Jan-20 18:01N 51°07' E 001°20'2 4.1
2019-Jan-20 17:30N 51°07' E 001°23'1019.3
2019-Jan-20 17:00N 51°02' E 001°36'918.7
2019-Jan-20 16:31N 50°58' E 001°50'1 1.9
2019-Jan-20 16:00N 50°58' E 001°51'0 0.0
2019-Jan-20 15:30N 50°58' E 001°51'4 7.1
2019-Jan-20 15:00N 50°58' E 001°46'1019.4
2019-Jan-20 14:30N 51°01' E 001°32'918.8
2019-Jan-20 14:01N 51°07' E 001°20'0 0.2
2019-Jan-20 13:30N 51°07' E 001°20'1 1.1
2019-Jan-20 13:00N 51°07' E 001°21'918.2
2019-Jan-20 12:30N 51°04' E 001°34'918.4
2019-Jan-20 12:01N 50°58' E 001°46'4 7.2
2019-Jan-20 11:30N 50°58' E 001°51'0 0.0
2019-Jan-20 11:00N 50°58' E 001°51'1 1.4
2019-Jan-20 10:30N 50°58' E 001°50'918.8
2019-Jan-20 10:00N 50°60' E 001°36'917.2
2019-Jan-20 09:30N 51°05' E 001°25'4 7.4
2019-Jan-20 09:00N 51°07' E 001°20'0 0.0
2019-Jan-20 08:30N 51°07' E 001°20'4 8.3
2019-Jan-20 08:00N 51°06' E 001°26'918.7
2019-Jan-20 07:30N 51°01' E 001°38'816.4
2019-Jan-20 07:00N 50°58' E 001°51'0 0.4
2019-Jan-20 06:31N 50°58' E 001°51'0 0.0
2019-Jan-20 06:00N 50°58' E 001°51'0 0.0
2019-Jan-20 05:31N 50°58' E 001°51'0 0.0
2019-Jan-20 05:00N 50°58' E 001°51'0 0.0
2019-Jan-20 04:30N 50°58' E 001°51'0 0.0
2019-Jan-20 04:00N 50°58' E 001°51'0 0.0
2019-Jan-20 03:30N 50°58' E 001°51'0 0.0
2019-Jan-20 03:00N 50°58' E 001°51'0 0.0
2019-Jan-20 02:31N 50°58' E 001°51'0 0.0
2019-Jan-20 02:00N 50°58' E 001°51'0 0.0
2019-Jan-20 01:30N 50°58' E 001°51'0 0.0
2019-Jan-20 01:00N 50°58' E 001°51'0 0.3
2019-Jan-20 00:30N 50°58' E 001°51'816.7
2019-Jan-20 00:01N 50°60' E 001°38'918.2
2019-Jan-19 23:31N 51°06' E 001°27'5 9.1
2019-Jan-19 23:00N 51°07' E 001°20'0 0.0
2019-Jan-19 22:28N 51°07' E 001°20'3 5.8
2019-Jan-19 22:00N 51°07' E 001°24'1019.8
2019-Jan-19 21:30N 51°03' E 001°39'816.9
2019-Jan-19 21:01N 50°58' E 001°50'1 1.4
2019-Jan-19 20:30N 50°58' E 001°51'1 1.7
2019-Jan-19 20:01N 50°58' E 001°50'918.9
2019-Jan-19 19:31N 51°00' E 001°35'1019.2
2019-Jan-19 19:01N 51°06' E 001°22'2 4.4
2019-Jan-19 18:30N 51°07' E 001°20'0 0.0
2019-Jan-19 18:00N 51°07' E 001°20'4 8.0
2019-Jan-19 17:31N 51°07' E 001°26'919.0
2019-Jan-19 17:01N 51°00' E 001°38'917.4
2019-Jan-19 16:30N 50°58' E 001°51'0 0.3
2019-Jan-19 16:00N 50°58' E 001°51'0 0.1
2019-Jan-19 15:30N 50°58' E 001°51'714.0
2019-Jan-19 15:00N 50°58' E 001°40'917.2
2019-Jan-19 14:30N 51°03' E 001°29'714.6
2019-Jan-19 14:00N 51°07' E 001°20'0 0.0
2019-Jan-19 13:29N 51°07' E 001°20'0 0.5
2019-Jan-19 13:00N 51°07' E 001°20'918.3
2019-Jan-19 12:30N 51°03' E 001°33'1019.1
2019-Jan-19 12:00N 50°58' E 001°46'3 6.5
2019-Jan-19 11:30N 50°58' E 001°51'0 0.0
2019-Jan-19 11:00N 50°58' E 001°51'1 2.3
2019-Jan-19 10:30N 50°58' E 001°50'918.5
2019-Jan-19 10:00N 51°01' E 001°35'918.6
2019-Jan-19 09:30N 51°06' E 001°24'3 5.0
2019-Jan-19 09:00N 51°07' E 001°20'0 0.0
2019-Jan-19 08:29N 51°07' E 001°20'3 6.8
2019-Jan-19 08:00N 51°07' E 001°25'1019.1
2019-Jan-19 07:30N 51°01' E 001°38'917.4
2019-Jan-19 07:01N 50°58' E 001°51'1 1.2
2019-Jan-19 06:30N 50°58' E 001°51'0 0.0
2019-Jan-19 06:01N 50°58' E 001°51'1 1.7
2019-Jan-19 05:31N 50°58' E 001°50'917.1
2019-Jan-19 05:00N 50°59' E 001°37'918.3
2019-Jan-19 04:31N 51°05' E 001°26'4 8.1
2019-Jan-19 04:00N 51°07' E 001°20'0 0.0
2019-Jan-19 03:29N 51°07' E 001°20'1 1.9
2019-Jan-19 03:01N 51°07' E 001°21'918.3
2019-Jan-19 02:30N 51°03' E 001°34'918.3
2019-Jan-19 02:00N 50°58' E 001°47'3 6.0
2019-Jan-19 01:30N 50°58' E 001°51'0 0.0
2019-Jan-19 01:00N 50°58' E 001°51'0 0.3
2019-Jan-19 00:30N 50°58' E 001°51'816.0
2019-Jan-19 00:00N 50°59' E 001°39'1019.1
2019-Jan-18 23:30N 51°05' E 001°26'5 9.1
2019-Jan-18 23:00N 51°07' E 001°20'0 0.0
2019-Jan-18 22:28N 51°07' E 001°20'2 5.2
2019-Jan-18 22:01N 51°07' E 001°24'1019.9
2019-Jan-18 21:31N 51°02' E 001°37'917.5
2019-Jan-18 21:01N 50°58' E 001°50'1 1.8
2019-Jan-18 20:30N 50°58' E 001°51'0 0.0
2019-Jan-18 20:00N 50°58' E 001°51'815.3
2019-Jan-18 19:31N 50°59' E 001°39'1019.1
2019-Jan-18 19:00N 51°05' E 001°27'510.4
2019-Jan-18 18:31N 51°07' E 001°20'0 0.0
2019-Jan-18 18:00N 51°07' E 001°20'1 2.5
2019-Jan-18 17:30N 51°07' E 001°22'1020.7
2019-Jan-18 17:01N 51°02' E 001°36'918.9
2019-Jan-18 16:30N 50°58' E 001°50'1 1.7
2019-Jan-18 16:00N 50°58' E 001°51'0 0.1
2019-Jan-18 15:30N 50°58' E 001°51'714.3
2019-Jan-18 15:01N 50°59' E 001°40'1019.3
2019-Jan-18 14:31N 51°04' E 001°27'610.6
2019-Jan-18 13:59N 51°07' E 001°20'0 0.0
2019-Jan-18 13:30N 51°07' E 001°20'1 1.0
2019-Jan-18 13:00N 51°07' E 001°21'918.2
2019-Jan-18 12:31N 51°04' E 001°34'1019.2
2019-Jan-18 12:01N 50°58' E 001°47'3 6.1
2019-Jan-18 11:30N 50°58' E 001°51'0 0.0
2019-Jan-18 11:00N 50°58' E 001°51'1 2.6
2019-Jan-18 10:31N 50°58' E 001°49'917.3
2019-Jan-18 10:01N 51°02' E 001°37'1019.4
2019-Jan-18 09:30N 51°06' E 001°23'2 4.7
2019-Jan-18 09:00N 51°07' E 001°20'0 0.0
2019-Jan-18 08:29N 51°07' E 001°20'0 0.5
2019-Jan-18 08:00N 51°07' E 001°20'917.7
2019-Jan-18 07:30N 51°07' E 001°34'918.9
2019-Jan-18 07:00N 50°59' E 001°43'510.9
2019-Jan-18 06:30N 50°58' E 001°51'0 0.0
2019-Jan-18 06:00N 50°58' E 001°51'2 4.5
2019-Jan-18 05:30N 50°58' E 001°48'917.8
2019-Jan-18 05:00N 51°01' E 001°34'1019.7
2019-Jan-18 04:31N 51°07' E 001°22'1 2.8
2019-Jan-18 04:00N 51°07' E 001°20'0 0.3
2019-Jan-18 03:30N 51°07' E 001°20'918.9
2019-Jan-18 03:00N 51°03' E 001°34'1019.5
2019-Jan-18 02:30N 50°58' E 001°47'3 5.7
2019-Jan-18 02:00N 50°58' E 001°51'0 0.0
2019-Jan-18 01:30N 50°58' E 001°51'0 0.7
2019-Jan-18 01:01N 50°58' E 001°51'816.7
2019-Jan-18 00:31N 50°59' E 001°38'1020.1
2019-Jan-18 00:01N 51°05' E 001°24'4 7.5
2019-Jan-17 23:30N 51°07' E 001°20'0 0.0
2019-Jan-17 23:00N 51°07' E 001°20'1 1.0
2019-Jan-17 22:30N 51°07' E 001°21'917.9
2019-Jan-17 22:01N 51°03' E 001°33'918.3
2019-Jan-17 21:31N 50°58' E 001°46'4 7.4
2019-Jan-17 21:00N 50°58' E 001°51'0 0.0
2019-Jan-17 20:30N 50°58' E 001°51'1 2.8
2019-Jan-17 20:01N 50°58' E 001°49'918.3
2019-Jan-17 19:31N 50°60' E 001°35'1020.0
2019-Jan-17 19:00N 51°06' E 001°23'2 4.0
2019-Jan-17 18:30N 51°07' E 001°20'0 0.0
2019-Jan-17 18:00N 51°07' E 001°20'4 8.2
2019-Jan-17 17:30N 51°06' E 001°26'1019.1
2019-Jan-17 17:00N 51°00' E 001°39'816.1
2019-Jan-17 16:30N 50°58' E 001°51'0 0.8
2019-Jan-17 16:00N 50°58' E 001°51'0 0.0
2019-Jan-17 15:30N 50°58' E 001°51'611.3
2019-Jan-17 15:00N 50°58' E 001°43'918.8
2019-Jan-17 14:30N 51°02' E 001°29'815.6
2019-Jan-17 14:00N 51°07' E 001°20'0 0.0
2019-Jan-17 13:29N 51°07' E 001°20'1 2.1
2019-Jan-17 13:00N 51°07' E 001°22'917.1
2019-Jan-17 12:30N 51°03' E 001°33'918.8
2019-Jan-17 12:00N 50°58' E 001°46'3 6.7
2019-Jan-17 11:30N 50°58' E 001°51'0 0.0
2019-Jan-17 11:01N 50°58' E 001°51'611.9
2019-Jan-17 10:30N 50°58' E 001°42'1020.0
2019-Jan-17 10:00N 51°03' E 001°28'713.6
2019-Jan-17 09:30N 51°07' E 001°20'0 0.0
2019-Jan-17 09:00N 51°07' E 001°20'2 3.6
2019-Jan-17 08:30N 51°07' E 001°23'918.4
2019-Jan-17 08:00N 51°03' E 001°36'917.4
2019-Jan-17 07:31N 50°58' E 001°47'3 5.1
2019-Jan-17 07:00N 50°58' E 001°51'0 0.0
2019-Jan-17 06:30N 50°58' E 001°51'612.3
2019-Jan-17 06:00N 50°58' E 001°42'1020.4
2019-Jan-17 05:30N 51°04' E 001°28'612.2
2019-Jan-17 05:00N 51°07' E 001°20'0 0.0
2019-Jan-17 04:29N 51°07' E 001°20'4 9.0
2019-Jan-17 04:01N 51°06' E 001°27'1020.5
2019-Jan-17 03:30N 51°00' E 001°40'7 7.5
2019-Jan-17 02:30N 50°58' E 001°51'4 8.9
2019-Jan-17 02:00N 50°58' E 001°44'918.9
2019-Jan-17 01:30N 51°03' E 001°31'917.3
2019-Jan-17 01:01N 51°07' E 001°20'0 0.0
2019-Jan-17 00:18N 51°07' E 001°20'0 0.2
2019-Jan-17 00:00N 51°07' E 001°20'815.8
2019-Jan-16 23:31N 51°07' E 001°33'917.4
2019-Jan-16 23:01N 51°00' E 001°40'714.7
2019-Jan-16 22:31N 50°58' E 001°51'0 0.1
2019-Jan-16 22:00N 50°58' E 001°51'0 0.0
2019-Jan-16 21:30N 50°58' E 001°51'612.1
2019-Jan-16 21:00N 50°58' E 001°42'1019.0
2019-Jan-16 20:30N 51°04' E 001°29'713.8
2019-Jan-16 20:00N 51°07' E 001°20'0 0.0
2019-Jan-16 19:30N 51°07' E 001°20'0 0.0
2019-Jan-16 19:00N 51°07' E 001°20'3 5.0
2019-Jan-16 18:30N 51°07' E 001°24'917.7
2019-Jan-16 18:00N 51°03' E 001°37'817.0
2019-Jan-16 17:30N 50°58' E 001°48'2 4.5
2019-Jan-16 17:00N 50°58' E 001°51'0 0.0
2019-Jan-16 16:30N 50°58' E 001°51'0 0.0
2019-Jan-16 16:00N 50°58' E 001°51'4 8.4
2019-Jan-16 15:31N 50°58' E 001°45'1019.1
2019-Jan-16 15:00N 51°01' E 001°30'918.2
2019-Jan-16 14:30N 51°07' E 001°21'0 0.6
2019-Jan-16 14:00N 51°07' E 001°20'0 0.0
2019-Jan-16 13:30N 51°07' E 001°20'3 5.9
2019-Jan-16 13:00N 51°07' E 001°24'918.6
2019-Jan-16 12:30N 51°02' E 001°37'918.0
2019-Jan-16 12:00N 50°58' E 001°50'1 1.3
2019-Jan-16 11:30N 50°58' E 001°51'0 0.3
2019-Jan-16 11:00N 50°58' E 001°51'510.9
2019-Jan-16 10:30N 50°58' E 001°42'1019.6
2019-Jan-16 10:00N 51°03' E 001°29'713.8
2019-Jan-16 09:30N 51°07' E 001°20'0 0.0
2019-Jan-16 08:56N 51°07' E 001°20'0 0.5
2019-Jan-16 08:30N 51°07' E 001°20'4 9.0
2019-Jan-16 08:00N 51°07' E 001°27'713.4
2019-Jan-16 07:31N 51°02' E 001°35'917.1
2019-Jan-16 07:01N 50°58' E 001°46'3 6.1
2019-Jan-16 06:30N 50°58' E 001°51'0 0.0
2019-Jan-16 06:01N 50°58' E 001°51'1 2.4
2019-Jan-16 05:30N 50°58' E 001°49'1019.4
2019-Jan-16 05:01N 51°01' E 001°35'1019.6
2019-Jan-16 04:30N 51°07' E 001°22'1 2.6
2019-Jan-16 04:00N 51°07' E 001°20'0 0.0
2019-Jan-16 03:30N 51°07' E 001°20'4 8.4
2019-Jan-16 03:00N 51°06' E 001°26'611.6
2019-Jan-16 02:31N 51°03' E 001°34'917.5
2019-Jan-16 02:00N 50°58' E 001°46'4 7.2
2019-Jan-16 01:30N 50°58' E 001°51'0 0.0
2019-Jan-16 01:00N 50°58' E 001°51'1 1.4
2019-Jan-16 00:31N 50°58' E 001°50'917.3
2019-Jan-16 00:01N 50°59' E 001°37'1019.1
2019-Jan-15 23:31N 51°06' E 001°26'4 7.9
2019-Jan-15 23:00N 51°07' E 001°20'0 0.0
2019-Jan-15 22:30N 51°07' E 001°20'2 4.8
2019-Jan-15 22:00N 51°07' E 001°24'919.0
2019-Jan-15 21:30N 51°03' E 001°37'917.9
2019-Jan-15 21:00N 50°58' E 001°50'1 2.4
2019-Jan-15 20:30N 50°58' E 001°51'1 1.0
2019-Jan-15 20:00N 50°58' E 001°51'918.3
2019-Jan-15 19:31N 51°00' E 001°37'1019.9
2019-Jan-15 19:01N 51°06' E 001°24'3 5.0
2019-Jan-15 18:29N 51°07' E 001°20'0 0.0
2019-Jan-15 18:00N 51°07' E 001°20'612.2
2019-Jan-15 17:30N 51°05' E 001°29'918.6
2019-Jan-15 17:00N 50°60' E 001°41'713.4
2019-Jan-15 16:30N 50°58' E 001°51'0 0.0
2019-Jan-15 16:00N 50°58' E 001°51'0 0.0
2019-Jan-15 15:30N 50°58' E 001°51'815.4
2019-Jan-15 15:00N 50°59' E 001°39'1020.0
2019-Jan-15 14:30N 51°04' E 001°26'5 9.4
2019-Jan-15 14:00N 51°07' E 001°20'0 0.0
2019-Jan-15 13:30N 51°07' E 001°20'0 1.0
2019-Jan-15 13:00N 51°07' E 001°21'918.4
2019-Jan-15 12:30N 51°03' E 001°33'918.9
2019-Jan-15 12:00N 50°58' E 001°47'3 6.1
2019-Jan-15 11:30N 50°58' E 001°51'0 0.0
2019-Jan-15 11:00N 50°58' E 001°51'2 3.6
2019-Jan-15 10:30N 50°58' E 001°49'917.6
2019-Jan-15 10:01N 51°00' E 001°35'1020.1
2019-Jan-15 09:30N 51°07' E 001°22'2 3.1
2019-Jan-15 08:57N 51°07' E 001°20'0 0.0
2019-Jan-15 08:30N 51°07' E 001°20'510.0
2019-Jan-15 08:00N 51°06' E 001°27'816.3
2019-Jan-15 07:30N 51°01' E 001°38'815.8
2019-Jan-15 07:00N 50°58' E 001°50'1 2.2
2019-Jan-15 06:30N 50°58' E 001°51'0 0.0
2019-Jan-15 06:00N 50°58' E 001°51'2 3.8
2019-Jan-15 05:31N 50°58' E 001°48'917.7
2019-Jan-15 05:01N 50°60' E 001°35'815.2
2019-Jan-15 04:31N 51°05' E 001°26'4 8.4
2019-Jan-15 03:59N 51°07' E 001°20'0 0.0
2019-Jan-15 03:29N 51°07' E 001°20'3 6.0
2019-Jan-15 03:00N 51°07' E 001°24'816.9
2019-Jan-15 02:30N 51°02' E 001°36'816.4
2019-Jan-15 02:01N 50°58' E 001°47'3 5.4
2019-Jan-15 01:30N 50°58' E 001°51'0 0.0
2019-Jan-15 01:01N 50°58' E 001°51'2 3.4
2019-Jan-15 00:31N 50°58' E 001°49'815.4
2019-Jan-15 00:00N 51°00' E 001°37'1019.6
2019-Jan-14 23:30N 51°06' E 001°24'3 5.4
2019-Jan-14 22:57N 51°07' E 001°20'0 0.0
2019-Jan-14 22:29N 51°07' E 001°20'3 6.1
2019-Jan-14 22:01N 51°07' E 001°24'918.7
2019-Jan-14 21:31N 51°02' E 001°37'917.2
2019-Jan-14 21:01N 50°58' E 001°50'1 2.3
2019-Jan-14 20:30N 50°58' E 001°51'0 0.0
2019-Jan-14 20:00N 50°58' E 001°51'714.2
2019-Jan-14 19:30N 50°59' E 001°40'1020.3
2019-Jan-14 19:00N 51°05' E 001°27'510.3
2019-Jan-14 18:30N 51°07' E 001°20'0 0.0
2019-Jan-14 18:00N 51°07' E 001°20'612.9
2019-Jan-14 17:30N 51°07' E 001°30'1019.3
2019-Jan-14 17:01N 51°00' E 001°42'713.0
2019-Jan-14 16:30N 50°58' E 001°51'0 0.3
2019-Jan-14 16:00N 50°58' E 001°51'0 0.2
2019-Jan-14 15:30N 50°58' E 001°51'917.4
2019-Jan-14 15:00N 50°58' E 001°37'1019.6
2019-Jan-14 14:30N 51°04' E 001°25'5 9.5
2019-Jan-14 14:01N 51°07' E 001°20'0 0.0
2019-Jan-14 13:31N 51°07' E 001°20'4 7.1
2019-Jan-14 13:00N 51°06' E 001°25'1019.7
2019-Jan-14 12:30N 51°01' E 001°38'917.0
2019-Jan-14 12:01N 50°58' E 001°51'0 0.4
2019-Jan-14 11:30N 50°58' E 001°51'0 0.0
2019-Jan-14 11:01N 50°58' E 001°51'1 2.1
2019-Jan-14 10:30N 50°58' E 001°50'917.0
2019-Jan-14 10:00N 50°59' E 001°36'1019.2
2019-Jan-14 09:30N 51°05' E 001°25'4 6.5
2019-Jan-14 08:57N 51°07' E 001°20'0 0.0
2019-Jan-14 08:30N 51°07' E 001°20'3 5.4
2019-Jan-14 08:01N 51°07' E 001°24'918.3
2019-Jan-14 07:31N 51°03' E 001°37'816.8
2019-Jan-14 07:00N 50°58' E 001°48'2 3.7
2019-Jan-14 06:31N 50°58' E 001°51'0 0.0
2019-Jan-14 06:00N 50°58' E 001°51'1 1.3
2019-Jan-14 05:31N 50°58' E 001°50'816.0
2019-Jan-14 05:00N 50°58' E 001°38'917.9
2019-Jan-14 04:30N 51°04' E 001°27'510.8
2019-Jan-14 04:00N 51°07' E 001°20'0 0.0
2019-Jan-14 03:30N 51°07' E 001°20'4 7.4
2019-Jan-14 03:00N 51°06' E 001°26'917.3
2019-Jan-14 02:30N 51°02' E 001°38'714.2
2019-Jan-14 02:00N 50°58' E 001°47'3 5.6
2019-Jan-14 01:30N 50°58' E 001°51'0 0.0
2019-Jan-14 01:00N 50°58' E 001°51'1 2.3
2019-Jan-14 00:30N 50°58' E 001°50'917.2
2019-Jan-14 00:00N 50°60' E 001°36'1020.0
2019-Jan-13 23:30N 51°06' E 001°23'3 5.5
2019-Jan-13 23:00N 51°07' E 001°20'0 0.0
2019-Jan-13 22:30N 51°07' E 001°20'0 0.0
2019-Jan-13 22:00N 51°07' E 001°20'0 0.0
2019-Jan-13 21:30N 51°07' E 001°20'0 0.0
2019-Jan-13 21:00N 51°07' E 001°20'0 0.0
2019-Jan-13 20:30N 51°07' E 001°20'2 4.7
2019-Jan-13 20:00N 51°07' E 001°24'918.8
2019-Jan-13 19:30N 51°03' E 001°37'917.3
2019-Jan-13 19:00N 50°58' E 001°49'2 3.3
2019-Jan-13 18:30N 50°58' E 001°51'  

Dump ship's entire track history